Time;durP1;ratioP1;P1;durP2;ratioP2;P2;SDS_P1;SDS_P2;PMS_P1;PMS_P2;Temp;Humidity;BMP_temperature;BMP_pressure;BME280_temperature;BME280_humidity;BME280_pressure;Samples;Min_cycle;Max_cycle;Signal;HPM_P1;HPM_P2
2022/01/24 00:00:59;;;;;;;9.38;5.55;;;;;;;;;;5011876;28;20196;-68
2022/01/24 00:03:45;;;;;;;9.02;5.22;;;;;;;;;;5029823;28;20071;-75
2022/01/24 00:06:32;;;;;;;8.02;4.93;;;;;;;;;;5015282;28;20137;-71
2022/01/24 00:09:17;;;;;;;9.15;5.00;;;;;;;;;;5029228;28;20040;-73
2022/01/24 00:12:15;;;;;;;9.65;5.75;;;;;;;;;;5029778;28;20023;-74
2022/01/24 00:17:51;;;;;;;8.63;5.30;;;;;;;;;;5031803;28;20032;-72
2022/01/24 00:26:46;;;;;;;10.00;5.85;;;;;;;;;;5029394;28;20029;-68
2022/01/24 00:29:32;;;;;;;8.85;5.18;;;;;;;;;;5024340;28;20072;-67
2022/01/24 00:32:17;;;;;;;9.82;5.35;;;;;;;;;;5028142;28;20495;-66
2022/01/24 00:35:02;;;;;;;9.35;5.63;;;;;;;;;;5028709;28;20034;-67
2022/01/24 00:37:49;;;;;;;12.35;6.57;;;;;;;;;;5029366;28;20103;-67
2022/01/24 00:40:40;;;;;;;10.23;5.30;;;;;;;;;;5028681;28;20029;-77
2022/01/24 00:43:51;;;;;;;9.40;5.35;;;;;;;;;;5027882;28;20106;-67
2022/01/24 00:46:51;;;;;;;14.30;5.78;;;;;;;;;;5028988;28;20044;-68
2022/01/24 00:55:39;;;;;;;12.75;6.20;;;;;;;;;;5011559;28;20052;-68
2022/01/24 00:58:25;;;;;;;11.52;6.57;;;;;;;;;;5025323;28;20034;-78
2022/01/24 01:01:11;;;;;;;13.02;6.45;;;;;;;;;;5010968;28;20025;-75
2022/01/24 01:03:56;;;;;;;10.75;6.20;;;;;;;;;;5005516;28;20389;-75
2022/01/24 01:06:43;;;;;;;14.38;6.43;;;;;;;;;;5027293;28;20025;-75
2022/01/24 01:18:42;;;;;;;11.93;6.60;;;;;;;;;;5027850;28;20121;-70
2022/01/24 01:21:28;;;;;;;10.45;5.72;;;;;;;;;;5029115;28;20037;-70
2022/01/24 01:24:14;;;;;;;11.38;6.22;;;;;;;;;;5013187;28;20443;-70
2022/01/24 01:27:05;;;;;;;12.40;6.18;;;;;;;;;;5026922;28;20476;-69
2022/01/24 01:30:02;;;;;;;11.27;6.03;;;;;;;;;;5013672;28;20120;-69
2022/01/24 01:33:09;;;;;;;9.98;6.57;;;;;;;;;;5025902;28;20506;-69
2022/01/24 01:39:44;;;;;;;13.70;7.25;;;;;;;;;;4980017;28;20046;-78
2022/01/24 01:55:12;;;;;;;12.82;7.22;;;;;;;;;;4976054;28;20030;-76
2022/01/24 01:57:57;;;;;;;12.60;7.18;;;;;;;;;;4990923;28;20065;-68
2022/01/24 02:00:44;;;;;;;12.02;7.30;;;;;;;;;;4986461;28;20646;-67
2022/01/24 02:03:30;;;;;;;11.23;6.80;;;;;;;;;;4983983;28;20521;-68
2022/01/24 02:06:15;;;;;;;11.95;6.63;;;;;;;;;;4991249;28;20018;-68
2022/01/24 02:09:10;;;;;;;12.90;7.15;;;;;;;;;;4991841;28;20524;-68
2022/01/24 02:11:56;;;;;;;13.38;7.07;;;;;;;;;;5027772;28;20488;-67
2022/01/24 02:14:49;;;;;;;15.02;8.13;;;;;;;;;;5029092;28;20038;-72
2022/01/24 02:18:30;;;;;;;12.95;7.82;;;;;;;;;;5009476;28;20029;-72
2022/01/24 02:26:27;;;;;;;12.75;7.15;;;;;;;;;;5028372;28;20104;-73
2022/01/24 02:29:42;;;;;;;13.85;6.97;;;;;;;;;;5027898;28;20025;-74
2022/01/24 02:32:17;;;;;;;13.80;7.53;;;;;;;;;;5024485;28;20037;-71
2022/01/24 02:35:03;;;;;;;12.02;6.25;;;;;;;;;;5019252;28;20119;-73
2022/01/24 02:37:48;;;;;;;14.55;7.47;;;;;;;;;;5026945;28;20076;-71
2022/01/24 02:40:33;;;;;;;13.15;7.30;;;;;;;;;;5020513;28;20029;-72
2022/01/24 02:49:31;;;;;;;14.98;7.80;;;;;;;;;;5032094;28;20029;-76
2022/01/24 02:52:17;;;;;;;12.95;7.45;;;;;;;;;;5012488;28;20387;-73
2022/01/24 02:55:03;;;;;;;14.27;7.97;;;;;;;;;;5007820;28;20515;-73
2022/01/24 02:57:48;;;;;;;18.33;8.35;;;;;;;;;;5016995;28;20045;-73
2022/01/24 03:00:34;;;;;;;16.20;8.27;;;;;;;;;;5032239;28;20116;-73
2022/01/24 03:03:19;;;;;;;13.90;7.57;;;;;;;;;;5018855;28;20021;-73
2022/01/24 03:06:05;;;;;;;14.40;8.07;;;;;;;;;;5031403;28;20032;-78
2022/01/24 03:08:50;;;;;;;14.35;7.65;;;;;;;;;;5017469;28;20171;-69
2022/01/24 03:14:36;;;;;;;14.60;8.50;;;;;;;;;;5028320;28;20124;-76
2022/01/24 03:17:21;;;;;;;13.82;8.57;;;;;;;;;;5017390;28;20053;-75
2022/01/24 03:20:07;;;;;;;13.95;8.32;;;;;;;;;;5029725;28;20026;-76
2022/01/24 03:22:52;;;;;;;12.63;7.30;;;;;;;;;;5002566;28;20026;-76
2022/01/24 03:25:37;;;;;;;15.02;8.70;;;;;;;;;;5032029;28;20026;-70
2022/01/24 03:28:23;;;;;;;15.50;8.32;;;;;;;;;;5018813;28;20076;-78
2022/01/24 03:31:08;;;;;;;14.18;8.27;;;;;;;;;;5030734;28;20021;-76
2022/01/24 03:33:53;;;;;;;14.73;8.13;;;;;;;;;;5028281;28;20526;-77
2022/01/24 03:36:38;;;;;;;16.10;8.95;;;;;;;;;;5017482;28;20030;-77
2022/01/24 03:39:24;;;;;;;16.05;8.98;;;;;;;;;;5030317;28;20072;-78
2022/01/24 03:42:09;;;;;;;13.38;8.13;;;;;;;;;;5016698;28;20441;-76
2022/01/24 03:44:58;;;;;;;14.70;9.18;;;;;;;;;;5023487;28;20044;-77
2022/01/24 03:48:06;;;;;;;15.27;8.18;;;;;;;;;;5028792;28;20022;-77
2022/01/24 03:50:51;;;;;;;13.77;8.80;;;;;;;;;;5023069;28;20495;-78
2022/01/24 03:53:39;;;;;;;15.48;9.10;;;;;;;;;;5025344;28;20053;-77
2022/01/24 03:56:24;;;;;;;16.33;10.00;;;;;;;;;;5010583;28;20019;-77
2022/01/24 03:59:09;;;;;;;15.23;9.10;;;;;;;;;;5027898;28;20025;-77
2022/01/24 04:01:56;;;;;;;14.27;8.40;;;;;;;;;;5015747;28;20053;-77
2022/01/24 04:04:41;;;;;;;15.65;8.27;;;;;;;;;;5030925;28;20025;-67
2022/01/24 04:07:26;;;;;;;14.60;8.48;;;;;;;;;;5029931;28;20392;-68
2022/01/24 04:10:13;;;;;;;17.48;10.05;;;;;;;;;;5016955;28;20037;-67
2022/01/24 04:13:08;;;;;;;17.63;8.77;;;;;;;;;;5023975;28;20029;-67
2022/01/24 04:16:24;;;;;;;14.68;8.70;;;;;;;;;;5033208;28;20110;-68
2022/01/24 04:21:49;;;;;;;13.25;7.90;;;;;;;;;;5019994;28;20499;-69
2022/01/24 04:24:35;;;;;;;13.98;8.35;;;;;;;;;;5027821;28;20057;-79
2022/01/24 04:27:24;;;;;;;14.40;9.02;;;;;;;;;;5016137;28;20107;-78
2022/01/24 04:30:10;;;;;;;14.88;8.82;;;;;;;;;;5017412;28;20028;-78
2022/01/24 04:32:56;;;;;;;17.95;9.68;;;;;;;;;;5012604;28;20467;-78
2022/01/24 04:35:41;;;;;;;18.08;10.50;;;;;;;;;;5014402;28;20029;-78
2022/01/24 04:38:27;;;;;;;17.10;9.43;;;;;;;;;;5014087;28;20036;-70
2022/01/24 04:41:22;;;;;;;18.58;10.25;;;;;;;;;;5026970;28;20045;-72
2022/01/24 04:53:10;;;;;;;14.93;9.73;;;;;;;;;;5020579;28;20108;-72
2022/01/24 04:55:56;;;;;;;18.25;9.85;;;;;;;;;;5027858;28;20025;-72
2022/01/24 04:58:41;;;;;;;16.90;9.85;;;;;;;;;;5015755;28;20163;-68
2022/01/24 05:01:26;;;;;;;12.52;7.45;;;;;;;;;;5013942;28;20032;-69
2022/01/24 05:04:12;;;;;;;16.30;9.18;;;;;;;;;;5029272;28;20385;-67
2022/01/24 05:06:58;;;;;;;14.75;8.77;;;;;;;;;;5030652;28;20123;-70
2022/01/24 05:09:50;;;;;;;16.10;7.90;;;;;;;;;;5027053;28;20021;-69
2022/01/24 05:24:42;;;;;;;16.02;9.77;;;;;;;;;;5028432;28;20083;-77
2022/01/24 05:27:30;;;;;;;13.70;9.40;;;;;;;;;;5030515;28;20029;-77
2022/01/24 05:30:16;;;;;;;12.70;8.35;;;;;;;;;;5012311;28;20139;-78
2022/01/24 05:33:02;;;;;;;14.93;8.43;;;;;;;;;;5015104;28;20091;-69
2022/01/24 05:35:47;;;;;;;18.08;10.70;;;;;;;;;;5029386;28;20024;-71
2022/01/24 05:38:33;;;;;;;18.45;9.13;;;;;;;;;;5022699;28;20026;-73
2022/01/24 05:41:18;;;;;;;13.05;8.23;;;;;;;;;;5016099;28;20057;-72
2022/01/24 05:44:04;;;;;;;18.25;11.15;;;;;;;;;;5012105;28;20033;-72
2022/01/24 05:46:49;;;;;;;14.45;9.30;;;;;;;;;;5014073;28;20017;-74
2022/01/24 05:49:35;;;;;;;18.60;10.25;;;;;;;;;;5013904;28;20021;-73
2022/01/24 05:52:20;;;;;;;15.50;9.15;;;;;;;;;;5012298;28;20527;-72
2022/01/24 05:55:06;;;;;;;16.30;8.85;;;;;;;;;;5028532;28;20071;-77
2022/01/24 05:57:53;;;;;;;18.75;10.05;;;;;;;;;;5012624;28;20113;-78
2022/01/24 06:00:38;;;;;;;17.20;8.85;;;;;;;;;;5013920;28;20508;-77
2022/01/24 06:03:24;;;;;;;17.00;10.00;;;;;;;;;;5029161;28;20033;-77
2022/01/24 06:06:09;;;;;;;15.95;8.60;;;;;;;;;;5027567;28;20392;-78
2022/01/24 06:08:54;;;;;;;17.65;10.32;;;;;;;;;;5014706;28;20025;-77
2022/01/24 06:11:39;;;;;;;16.65;9.80;;;;;;;;;;5025085;28;20132;-69
2022/01/24 06:14:25;;;;;;;16.95;9.65;;;;;;;;;;5029807;28;20477;-68
2022/01/24 06:17:10;;;;;;;16.17;10.23;;;;;;;;;;5027268;28;20076;-68
2022/01/24 06:19:56;;;;;;;14.80;8.18;;;;;;;;;;5027770;28;20024;-68
2022/01/24 06:22:41;;;;;;;17.55;10.10;;;;;;;;;;5033312;28;20021;-68
2022/01/24 06:25:28;;;;;;;15.18;9.80;;;;;;;;;;5011016;28;20534;-70
2022/01/24 06:28:13;;;;;;;16.15;9.50;;;;;;;;;;5029430;28;20021;-68
2022/01/24 06:30:59;;;;;;;21.50;10.82;;;;;;;;;;5027261;28;20297;-76
2022/01/24 06:33:44;;;;;;;17.13;10.38;;;;;;;;;;5018097;28;20075;-68
2022/01/24 06:36:29;;;;;;;15.75;9.75;;;;;;;;;;5030624;28;20053;-67
2022/01/24 06:39:15;;;;;;;15.02;9.63;;;;;;;;;;5007216;28;20029;-66
2022/01/24 06:42:33;;;;;;;21.90;11.73;;;;;;;;;;5027804;28;20048;-70
2022/01/24 06:45:12;;;;;;;16.70;10.32;;;;;;;;;;5029182;28;20036;-68
2022/01/24 06:47:57;;;;;;;17.05;10.65;;;;;;;;;;5033209;28;20384;-81
2022/01/24 06:50:42;;;;;;;19.42;10.48;;;;;;;;;;5027172;28;20029;-74
2022/01/24 06:53:28;;;;;;;15.98;9.68;;;;;;;;;;5016948;28;20531;-74
2022/01/24 06:56:13;;;;;;;16.52;10.13;;;;;;;;;;5027768;28;20140;-73
2022/01/24 06:58:59;;;;;;;18.45;10.85;;;;;;;;;;5023411;28;20119;-72
2022/01/24 07:01:44;;;;;;;16.65;10.73;;;;;;;;;;5012355;28;20076;-72
2022/01/24 07:04:29;;;;;;;20.25;11.60;;;;;;;;;;5025103;28;20033;-72
2022/01/24 07:07:14;;;;;;;19.45;10.57;;;;;;;;;;5013869;28;20017;-67
2022/01/24 07:10:00;;;;;;;20.17;10.57;;;;;;;;;;5016776;28;20068;-70
2022/01/24 07:12:47;;;;;;;17.92;10.48;;;;;;;;;;5022860;28;20034;-70
2022/01/24 07:15:41;;;;;;;17.60;10.25;;;;;;;;;;5025987;28;20021;-70
2022/01/24 07:21:12;;;;;;;15.55;9.50;;;;;;;;;;5020043;28;20120;-77
2022/01/24 07:23:57;;;;;;;14.73;9.88;;;;;;;;;;5038475;28;20060;-76
2022/01/24 07:26:42;;;;;;;18.08;10.52;;;;;;;;;;5022249;28;20029;-67
2022/01/24 07:29:27;;;;;;;18.38;9.82;;;;;;;;;;5023467;28;20492;-74
2022/01/24 07:32:13;;;;;;;16.58;10.02;;;;;;;;;;5027510;28;20057;-74
2022/01/24 07:34:58;;;;;;;17.13;10.95;;;;;;;;;;5009874;28;20040;-73
2022/01/24 07:37:43;;;;;;;16.83;10.50;;;;;;;;;;5021252;28;20025;-74
2022/01/24 07:40:29;;;;;;;20.42;9.65;;;;;;;;;;5015101;28;20164;-74
2022/01/24 07:43:14;;;;;;;18.27;10.07;;;;;;;;;;5016784;28;20030;-68
2022/01/24 07:45:59;;;;;;;17.98;10.35;;;;;;;;;;5013424;28;20028;-70
2022/01/24 07:48:45;;;;;;;18.50;11.15;;;;;;;;;;5007985;28;20040;-74
2022/01/24 07:51:30;;;;;;;18.95;11.75;;;;;;;;;;5024086;28;20249;-73
2022/01/24 07:54:15;;;;;;;19.00;10.85;;;;;;;;;;5027337;28;20091;-74
2022/01/24 07:57:01;;;;;;;16.95;9.82;;;;;;;;;;5026024;28;20021;-70
2022/01/24 07:59:46;;;;;;;18.40;11.45;;;;;;;;;;5023575;28;20430;-70
2022/01/24 08:02:31;;;;;;;18.85;11.80;;;;;;;;;;5023512;28;20021;-65
2022/01/24 08:05:17;;;;;;;20.95;11.75;;;;;;;;;;5010274;28;20482;-69
2022/01/24 08:08:03;;;;;;;18.10;11.95;;;;;;;;;;5028194;28;20469;-71
2022/01/24 08:10:48;;;;;;;18.75;11.45;;;;;;;;;;5026517;28;20510;-73
2022/01/24 08:13:33;;;;;;;16.33;9.52;;;;;;;;;;5025705;28;20577;-71
2022/01/24 08:16:19;;;;;;;16.50;9.70;;;;;;;;;;5023478;28;20135;-71
2022/01/24 08:19:04;;;;;;;17.95;10.45;;;;;;;;;;5030132;28;20057;-72
2022/01/24 08:21:49;;;;;;;19.40;12.05;;;;;;;;;;5025684;28;20100;-73
2022/01/24 08:24:34;;;;;;;21.48;11.88;;;;;;;;;;5024010;28;20456;-72
2022/01/24 08:27:20;;;;;;;17.80;11.77;;;;;;;;;;5007529;28;20725;-72
2022/01/24 08:30:10;;;;;;;19.63;11.48;;;;;;;;;;5017645;28;20018;-73
2022/01/24 08:32:55;;;;;;;20.17;11.80;;;;;;;;;;5018301;28;20436;-73
2022/01/24 08:35:40;;;;;;;20.42;13.02;;;;;;;;;;5006549;28;20568;-73
2022/01/24 08:38:26;;;;;;;19.17;13.02;;;;;;;;;;5029770;28;20022;-70
2022/01/24 08:41:20;;;;;;;20.60;12.13;;;;;;;;;;5009953;28;20504;-77
2022/01/24 08:44:34;;;;;;;18.60;11.70;;;;;;;;;;5031325;28;20018;-78
2022/01/24 08:47:19;;;;;;;21.08;12.75;;;;;;;;;;5030359;28;20033;-79
2022/01/24 08:50:05;;;;;;;19.42;11.55;;;;;;;;;;5015211;28;20553;-81
2022/01/24 08:52:50;;;;;;;20.35;12.48;;;;;;;;;;5013864;28;20029;-77
2022/01/24 08:55:37;;;;;;;21.38;12.63;;;;;;;;;;5015556;28;20079;-76
2022/01/24 08:58:24;;;;;;;19.48;12.90;;;;;;;;;;5011016;28;20112;-72
2022/01/24 09:01:09;;;;;;;20.33;13.65;;;;;;;;;;5009585;28;20060;-76
2022/01/24 09:03:54;;;;;;;24.40;12.93;;;;;;;;;;5020483;28;20087;-74
2022/01/24 09:06:40;;;;;;;22.65;13.73;;;;;;;;;;5023336;28;20074;-77
2022/01/24 09:09:25;;;;;;;24.05;13.45;;;;;;;;;;5028304;28;20029;-73
2022/01/24 09:12:12;;;;;;;21.00;13.95;;;;;;;;;;5018239;28;20022;-72
2022/01/24 09:14:57;;;;;;;17.50;12.50;;;;;;;;;;5012387;28;20033;-70
2022/01/24 09:17:43;;;;;;;19.92;13.25;;;;;;;;;;5025382;28;20022;-77
2022/01/24 09:20:30;;;;;;;19.77;12.23;;;;;;;;;;5023449;28;20076;-80
2022/01/24 09:23:16;;;;;;;18.75;12.00;;;;;;;;;;5021285;28;20025;-76
2022/01/24 09:26:01;;;;;;;18.05;11.63;;;;;;;;;;5024167;28;20538;-79
2022/01/24 09:28:47;;;;;;;21.35;13.85;;;;;;;;;;5020288;28;20026;-71
2022/01/24 09:31:32;;;;;;;17.40;12.52;;;;;;;;;;5017319;28;20485;-62
2022/01/24 09:34:20;;;;;;;20.38;14.15;;;;;;;;;;5024794;28;20025;-79
2022/01/24 09:37:05;;;;;;;18.50;12.05;;;;;;;;;;5026058;28;20067;-79
2022/01/24 09:39:50;;;;;;;21.75;14.70;;;;;;;;;;5003020;28;20441;-77
2022/01/24 09:42:36;;;;;;;22.63;12.55;;;;;;;;;;5012018;28;20053;-75
2022/01/24 09:45:21;;;;;;;18.60;13.70;;;;;;;;;;5024362;28;20118;-77
2022/01/24 09:48:08;;;;;;;19.73;13.48;;;;;;;;;;5022312;28;20100;-75
2022/01/24 09:50:54;;;;;;;22.17;14.50;;;;;;;;;;5023865;28;20061;-71
2022/01/24 09:53:39;;;;;;;23.95;15.43;;;;;;;;;;5021862;28;20377;-69
2022/01/24 09:56:24;;;;;;;25.85;15.48;;;;;;;;;;5023922;28;20022;-77
2022/01/24 09:59:10;;;;;;;17.05;12.55;;;;;;;;;;5010254;28;20434;-77
2022/01/24 10:01:55;;;;;;;21.88;14.73;;;;;;;;;;5007301;28;20104;-76
2022/01/24 10:04:40;;;;;;;19.13;13.25;;;;;;;;;;5028215;28;20527;-79
2022/01/24 10:07:26;;;;;;;19.13;13.98;;;;;;;;;;5025278;28;20030;-77
2022/01/24 10:10:11;;;;;;;18.05;12.77;;;;;;;;;;5025636;28;20031;-78
2022/01/24 10:18:49;;;;;;;15.43;11.52;;;;;;;;;;5025745;28;20060;-74
2022/01/24 10:21:37;;;;;;;15.38;11.00;;;;;;;;;;5038704;28;20024;-73
2022/01/24 10:24:26;;;;;;;17.20;10.73;;;;;;;;;;5034185;28;20105;-75
2022/01/24 10:27:15;;;;;;;13.02;8.48;;;;;;;;;;5014332;28;20369;-74
2022/01/24 10:30:03;;;;;;;12.85;8.35;;;;;;;;;;5027775;28;20026;-75
2022/01/24 10:32:51;;;;;;;14.68;10.60;;;;;;;;;;5027877;28;20480;-80
2022/01/24 10:35:45;;;;;;;18.13;10.38;;;;;;;;;;5028226;28;20068;-81
2022/01/24 10:38:44;;;;;;;14.23;9.82;;;;;;;;;;5009127;28;20088;-83
2022/01/24 10:41:49;;;;;;;16.35;10.18;;;;;;;;;;5027848;28;20059;-80
2022/01/24 10:44:35;;;;;;;14.07;8.93;;;;;;;;;;5039559;28;20033;-83
2022/01/24 10:47:22;;;;;;;11.82;8.02;;;;;;;;;;5011941;28;20080;-67
2022/01/24 10:50:08;;;;;;;11.63;8.45;;;;;;;;;;5017708;28;20021;-75
2022/01/24 10:52:53;;;;;;;11.43;7.55;;;;;;;;;;5012567;28;20040;-74
2022/01/24 10:55:40;;;;;;;10.35;7.55;;;;;;;;;;5026987;28;20110;-73
2022/01/24 10:58:32;;;;;;;10.68;7.18;;;;;;;;;;5008719;28;20041;-74
2022/01/24 11:01:22;;;;;;;12.52;7.72;;;;;;;;;;5008216;28;20040;-75
2022/01/24 11:04:13;;;;;;;9.45;6.85;;;;;;;;;;5025531;28;20377;-73
2022/01/24 11:06:59;;;;;;;10.80;7.18;;;;;;;;;;5015574;28;20098;-73
2022/01/24 11:09:44;;;;;;;10.15;7.00;;;;;;;;;;5027323;28;20025;-71
2022/01/24 11:12:29;;;;;;;8.93;6.07;;;;;;;;;;5029726;28;20045;-71
2022/01/24 11:15:15;;;;;;;11.68;6.15;;;;;;;;;;5024622;28;20037;-71
2022/01/24 11:18:01;;;;;;;10.85;6.70;;;;;;;;;;5024310;28;20567;-72
2022/01/24 11:20:46;;;;;;;1999.90;999.90;;;;;;;;;;5023940;28;20539;-71
2022/01/24 11:23:32;;;;;;;1999.90;999.90;;;;;;;;;;5028583;28;20025;-72
2022/01/24 11:26:19;;;;;;;1999.90;999.90;;;;;;;;;;5015666;28;20409;-73
2022/01/24 11:29:04;;;;;;;1999.90;999.90;;;;;;;;;;5007496;28;20053;-73
2022/01/24 11:31:55;;;;;;;1999.90;999.90;;;;;;;;;;5014048;28;20329;-71
2022/01/24 11:34:42;;;;;;;1999.90;999.90;;;;;;;;;;5026719;28;20033;-73
2022/01/24 11:37:32;;;;;;;1999.90;999.90;;;;;;;;;;5029309;28;20428;-74
2022/01/24 11:40:19;;;;;;;1999.90;999.90;;;;;;;;;;5013664;28;20022;-74
2022/01/24 11:43:23;;;;;;;1999.90;999.90;;;;;;;;;;5027381;28;20084;-74
2022/01/24 11:46:28;;;;;;;1999.90;999.90;;;;;;;;;;5030276;28;20026;-80
2022/01/24 11:49:13;;;;;;;14.20;13.07;;;;;;;;;;5040070;28;20044;-84
2022/01/24 11:52:13;;;;;;;7.05;5.03;;;;;;;;;;5019222;28;20050;-87
2022/01/24 11:55:15;;;;;;;8.70;5.40;;;;;;;;;;5018920;28;20033;-87
2022/01/24 11:58:03;;;;;;;7.63;4.60;;;;;;;;;;5024873;28;20105;-84
2022/01/24 12:00:48;;;;;;;7.95;4.85;;;;;;;;;;5013939;28;20660;-72
2022/01/24 12:03:34;;;;;;;7.32;4.80;;;;;;;;;;5014527;28;20099;-69
2022/01/24 12:06:20;;;;;;;6.07;4.50;;;;;;;;;;5017825;28;20075;-71
2022/01/24 12:09:06;;;;;;;6.75;4.15;;;;;;;;;;5027348;28;20465;-76
2022/01/24 12:11:53;;;;;;;6.97;4.50;;;;;;;;;;5019911;28;20100;-74
2022/01/24 12:14:38;;;;;;;6.85;4.53;;;;;;;;;;5024860;28;20365;-74
2022/01/24 12:17:44;;;;;;;5.97;3.92;;;;;;;;;;5006184;28;20101;-77
2022/01/24 12:20:29;;;;;;;5.78;3.83;;;;;;;;;;5030202;28;20047;-74
2022/01/24 12:23:28;;;;;;;7.80;3.90;;;;;;;;;;5025503;28;20022;-73
2022/01/24 12:26:13;;;;;;;10.43;4.22;;;;;;;;;;5009574;28;20333;-71
2022/01/24 12:29:03;;;;;;;5.65;3.80;;;;;;;;;;5028190;28;20025;-70
2022/01/24 12:31:53;;;;;;;8.10;3.95;;;;;;;;;;5027929;28;20049;-71
2022/01/24 12:34:40;;;;;;;6.28;3.95;;;;;;;;;;5040332;28;20037;-69
2022/01/24 12:37:31;;;;;;;7.63;4.75;;;;;;;;;;5006253;28;20140;-70
2022/01/24 12:40:24;;;;;;;6.15;4.10;;;;;;;;;;5027380;28;20599;-69
2022/01/24 12:43:18;;;;;;;8.68;4.20;;;;;;;;;;5022569;28;20057;-71
2022/01/24 12:46:19;;;;;;;10.75;6.32;;;;;;;;;;5025241;28;20032;-72
2022/01/24 12:49:06;;;;;;;11.13;5.72;;;;;;;;;;5012763;28;20100;-78
2022/01/24 12:51:51;;;;;;;7.32;5.47;;;;;;;;;;5020877;28;20033;-81
2022/01/24 12:54:39;;;;;;;10.43;5.22;;;;;;;;;;5026960;28;20451;-79
2022/01/24 12:57:29;;;;;;;10.00;6.32;;;;;;;;;;5023886;28;20060;-76
2022/01/24 13:00:16;;;;;;;11.55;6.28;;;;;;;;;;5024248;28;20060;-72
2022/01/24 13:03:02;;;;;;;10.85;5.53;;;;;;;;;;5025699;28;20057;-70
2022/01/24 13:05:47;;;;;;;9.55;5.70;;;;;;;;;;5015603;28;20366;-71
2022/01/24 13:08:32;;;;;;;9.88;5.70;;;;;;;;;;5009983;28;20032;-71
2022/01/24 13:11:17;;;;;;;14.32;6.00;;;;;;;;;;5009962;28;20462;-69
2022/01/24 13:14:11;;;;;;;10.52;5.47;;;;;;;;;;5010598;28;20361;-71
2022/01/24 13:23:24;;;;;;;12.80;5.38;;;;;;;;;;5019944;28;20014;-68
2022/01/24 13:26:10;;;;;;;10.02;5.50;;;;;;;;;;5008056;28;20037;-68
2022/01/24 13:29:02;;;;;;;10.73;4.85;;;;;;;;;;5019130;28;20052;-68
2022/01/24 13:31:48;;;;;;;8.68;4.82;;;;;;;;;;5009310;28;20083;-74
2022/01/24 13:34:33;;;;;;;10.57;5.22;;;;;;;;;;5024324;28;20493;-72
2022/01/24 13:37:32;;;;;;;10.40;5.47;;;;;;;;;;5003033;28;20036;-73
2022/01/24 13:40:30;;;;;;;10.45;5.10;;;;;;;;;;5005724;28;20033;-72
2022/01/24 13:43:15;;;;;;;7.93;4.65;;;;;;;;;;5023691;28;20049;-77
2022/01/24 13:46:01;;;;;;;7.97;4.43;;;;;;;;;;5007730;28;20396;-78
2022/01/24 13:48:48;;;;;;;10.95;4.50;;;;;;;;;;5010124;28;20461;-72
2022/01/24 13:51:40;;;;;;;7.90;4.70;;;;;;;;;;5026657;28;20029;-74
2022/01/24 13:54:26;;;;;;;6.47;4.70;;;;;;;;;;5010865;28;20029;-72
2022/01/24 13:57:16;;;;;;;7.00;4.63;;;;;;;;;;5009515;28;20548;-73
2022/01/24 14:00:08;;;;;;;13.50;4.70;;;;;;;;;;5025162;28;20442;-71
2022/01/24 14:03:06;;;;;;;10.82;5.10;;;;;;;;;;5010228;28;20033;-74
2022/01/24 14:06:10;;;;;;;8.45;5.07;;;;;;;;;;5001792;28;20120;-73
2022/01/24 14:09:07;;;;;;;8.85;5.15;;;;;;;;;;5021751;28;20366;-75
2022/01/24 14:11:53;;;;;;;12.15;5.22;;;;;;;;;;5002878;28;20083;-71
2022/01/24 14:15:00;;;;;;;9.95;5.00;;;;;;;;;;5013967;28;20451;-65
2022/01/24 14:20:51;;;;;;;8.73;4.70;;;;;;;;;;5022739;28;20031;-73
2022/01/24 14:23:38;;;;;;;9.38;5.63;;;;;;;;;;5014365;28;20062;-76
2022/01/24 14:26:25;;;;;;;7.65;4.35;;;;;;;;;;5023602;28;20514;-72
2022/01/24 14:29:12;;;;;;;10.43;4.43;;;;;;;;;;5025066;28;20044;-80
2022/01/24 14:32:09;;;;;;;8.15;4.68;;;;;;;;;;5012246;28;20038;-73
2022/01/24 14:35:05;;;;;;;8.73;4.53;;;;;;;;;;5024027;28;20107;-72
2022/01/24 14:37:53;;;;;;;8.95;4.93;;;;;;;;;;5013678;28;20022;-73
2022/01/24 14:40:44;;;;;;;9.93;5.25;;;;;;;;;;5012788;28;20777;-69
2022/01/24 14:46:39;;;;;;;9.25;4.07;;;;;;;;;;5018773;28;20488;-70
2022/01/24 14:49:27;;;;;;;9.98;4.35;;;;;;;;;;5014772;28;20060;-72
2022/01/24 14:52:16;;;;;;;7.50;3.78;;;;;;;;;;5028808;28;20029;-71
2022/01/24 14:55:02;;;;;;;8.65;4.03;;;;;;;;;;5017477;28;20052;-72
2022/01/24 14:57:47;;;;;;;8.93;5.32;;;;;;;;;;5014101;28;20040;-69
2022/01/24 15:00:33;;;;;;;8.10;4.05;;;;;;;;;;5031582;28;20025;-71
2022/01/24 15:03:18;;;;;;;10.60;4.25;;;;;;;;;;5031257;28;20126;-72
2022/01/24 15:06:03;;;;;;;8.23;4.38;;;;;;;;;;5017599;28;20032;-74
2022/01/24 15:08:49;;;;;;;12.63;4.15;;;;;;;;;;5026766;28;20032;-72
2022/01/24 15:11:36;;;;;;;12.48;4.72;;;;;;;;;;5011241;28;20029;-69
2022/01/24 15:26:06;;;;;;;8.30;4.45;;;;;;;;;;5023464;28;20112;-72
2022/01/24 15:28:52;;;;;;;9.82;4.35;;;;;;;;;;5007509;28;20544;-70
2022/01/24 15:31:37;;;;;;;7.50;3.85;;;;;;;;;;5020780;28;20021;-73
2022/01/24 15:34:23;;;;;;;10.50;5.47;;;;;;;;;;5011192;28;20063;-74
2022/01/24 15:37:08;;;;;;;8.65;4.28;;;;;;;;;;5017357;28;20043;-77
2022/01/24 15:39:54;;;;;;;10.88;4.10;;;;;;;;;;5027414;28;20031;-79
2022/01/24 15:48:13;;;;;;;8.90;4.47;;;;;;;;;;5028810;28;20017;-78
2022/01/24 15:50:59;;;;;;;11.00;4.72;;;;;;;;;;5029219;28;20110;-78
2022/01/24 15:53:44;;;;;;;9.65;4.93;;;;;;;;;;5024376;28;20037;-62
2022/01/24 15:59:15;;;;;;;10.63;4.70;;;;;;;;;;5018130;28;20033;-71
2022/01/24 16:02:00;;;;;;;8.85;4.72;;;;;;;;;;5026846;28;20076;-71
2022/01/24 16:04:45;;;;;;;7.65;4.57;;;;;;;;;;5029894;28;20121;-74
2022/01/24 16:07:31;;;;;;;9.15;4.50;;;;;;;;;;5028157;28;20029;-72
2022/01/24 16:10:18;;;;;;;11.20;5.22;;;;;;;;;;5028364;28;20076;-71
2022/01/24 16:13:03;;;;;;;11.63;4.10;;;;;;;;;;5027631;28;20028;-71
2022/01/24 16:15:48;;;;;;;13.90;4.28;;;;;;;;;;5012735;28;20025;-73
2022/01/24 16:18:38;;;;;;;10.20;4.45;;;;;;;;;;5028167;28;20124;-72
2022/01/24 16:21:27;;;;;;;8.75;3.92;;;;;;;;;;5012774;28;20031;-73
2022/01/24 16:27:00;;;;;;;9.38;4.65;;;;;;;;;;5026905;28;20464;-71
2022/01/24 16:29:49;;;;;;;8.88;4.38;;;;;;;;;;5022557;28;22055;-78
2022/01/24 16:32:35;;;;;;;7.22;3.95;;;;;;;;;;5042540;28;20022;-76
2022/01/24 16:35:20;;;;;;;7.45;3.90;;;;;;;;;;5024907;28;20067;-75
2022/01/24 16:38:07;;;;;;;7.53;3.53;;;;;;;;;;5027396;28;20029;-73
2022/01/24 16:41:01;;;;;;;8.57;4.07;;;;;;;;;;5024362;28;20681;-71
2022/01/24 16:49:43;;;;;;;9.27;4.18;;;;;;;;;;5024585;28;20113;-75
2022/01/24 16:52:31;;;;;;;8.68;4.28;;;;;;;;;;5019648;28;20476;-73
2022/01/24 16:55:17;;;;;;;9.48;4.15;;;;;;;;;;5025555;28;20029;-71
2022/01/24 16:58:02;;;;;;;8.30;4.13;;;;;;;;;;5018226;28;20366;-79
2022/01/24 17:00:47;;;;;;;6.80;4.20;;;;;;;;;;5024360;28;20041;-76
2022/01/24 17:03:33;;;;;;;9.30;4.95;;;;;;;;;;5028783;28;20025;-74
2022/01/24 17:06:18;;;;;;;7.65;4.82;;;;;;;;;;5025516;28;20053;-75
2022/01/24 17:09:05;;;;;;;11.30;4.82;;;;;;;;;;5014019;28;20032;-79
2022/01/24 17:11:55;;;;;;;8.13;4.53;;;;;;;;;;5021047;28;20588;-77
2022/01/24 17:14:42;;;;;;;7.82;4.45;;;;;;;;;;5026517;28;20040;-71
2022/01/24 17:17:30;;;;;;;13.05;4.88;;;;;;;;;;5028568;28;20033;-68
2022/01/24 17:20:15;;;;;;;14.00;4.78;;;;;;;;;;5011963;28;20120;-69
2022/01/24 17:23:00;;;;;;;9.75;4.70;;;;;;;;;;5006203;28;20029;-70
2022/01/24 17:25:46;;;;;;;8.70;3.72;;;;;;;;;;5023634;28;20047;-70
2022/01/24 17:28:31;;;;;;;10.57;4.95;;;;;;;;;;5023545;28;20151;-70
2022/01/24 17:31:16;;;;;;;7.72;4.28;;;;;;;;;;5019579;28;20389;-74
2022/01/24 17:34:02;;;;;;;9.15;4.32;;;;;;;;;;5013575;28;20056;-82
2022/01/24 17:36:47;;;;;;;10.35;4.47;;;;;;;;;;5025636;28;20026;-77
2022/01/24 17:39:33;;;;;;;10.20;4.13;;;;;;;;;;5007825;28;20060;-77
2022/01/24 17:42:18;;;;;;;9.98;4.97;;;;;;;;;;5038060;28;20051;-74
2022/01/24 17:45:04;;;;;;;15.05;5.97;;;;;;;;;;5028052;28;20512;-74
2022/01/24 17:47:50;;;;;;;13.38;5.50;;;;;;;;;;5009081;28;20099;-75
2022/01/24 17:50:35;;;;;;;9.50;5.07;;;;;;;;;;5023588;28;20123;-69
2022/01/24 17:53:22;;;;;;;10.10;5.00;;;;;;;;;;5012604;28;20472;-68
2022/01/24 17:56:08;;;;;;;11.98;5.13;;;;;;;;;;5036717;28;20033;-72
2022/01/24 17:58:53;;;;;;;11.25;4.95;;;;;;;;;;5023765;28;20491;-70
2022/01/24 18:01:38;;;;;;;11.70;5.20;;;;;;;;;;5020134;28;20101;-71
2022/01/24 18:04:25;;;;;;;10.38;6.03;;;;;;;;;;5024808;28;20458;-69
2022/01/24 18:07:10;;;;;;;9.13;5.38;;;;;;;;;;5028812;28;20113;-69
2022/01/24 18:09:55;;;;;;;10.40;5.18;;;;;;;;;;5026023;28;20024;-72
2022/01/24 18:12:40;;;;;;;8.65;5.22;;;;;;;;;;5025485;28;20144;-72
2022/01/24 18:15:27;;;;;;;13.93;5.07;;;;;;;;;;5025318;28;20029;-72
2022/01/24 18:18:12;;;;;;;9.82;5.00;;;;;;;;;;5019458;28;20021;-75
2022/01/24 18:20:58;;;;;;;12.55;5.32;;;;;;;;;;5029750;28;20632;-71
2022/01/24 18:23:43;;;;;;;12.80;5.75;;;;;;;;;;5021310;28;20112;-73
2022/01/24 18:26:28;;;;;;;13.60;6.05;;;;;;;;;;5017154;28;20018;-73
2022/01/24 18:29:14;;;;;;;8.85;4.75;;;;;;;;;;5016969;28;20048;-71
2022/01/24 18:31:59;;;;;;;10.38;5.82;;;;;;;;;;5008629;28;20026;-71
2022/01/24 18:34:44;;;;;;;12.63;6.20;;;;;;;;;;5002827;28;20037;-71
2022/01/24 18:37:30;;;;;;;11.27;5.80;;;;;;;;;;5008240;28;20022;-72